Time;durP1;ratioP1;P1;durP2;ratioP2;P2;SDS_P1;SDS_P2;PMS_P1;PMS_P2;Temp;Humidity;BMP_temperature;BMP_pressure;BME280_temperature;BME280_humidity;BME280_pressure;Samples;Min_cycle;Max_cycle;Signal;HPM_P1;HPM_P2
2023/10/17 00:00:32;;;;;;;0.88;0.88;;;;;;;;;;6282711;28;20363;-72
2023/10/17 00:03:38;;;;;;;0.80;0.80;;;;;;;;;;6282549;28;20351;-73
2023/10/17 00:06:42;;;;;;;0.95;0.95;;;;;;;;;;6282836;28;20384;-72
2023/10/17 00:09:47;;;;;;;2.38;0.98;;;;;;;;;;6282166;28;20295;-74
2023/10/17 00:12:52;;;;;;;1.20;0.85;;;;;;;;;;6282108;28;20471;-72
2023/10/17 00:15:56;;;;;;;1.95;1.20;;;;;;;;;;6281694;28;20267;-71
2023/10/17 00:19:04;;;;;;;2.42;1.00;;;;;;;;;;6282041;28;20287;-71
2023/10/17 00:22:09;;;;;;;1.45;1.10;;;;;;;;;;6282282;28;20235;-72
2023/10/17 00:25:17;;;;;;;2.83;1.02;;;;;;;;;;6281437;28;20291;-73
2023/10/17 00:28:22;;;;;;;2.78;0.95;;;;;;;;;;6281607;28;20291;-71
2023/10/17 00:31:26;;;;;;;2.08;0.95;;;;;;;;;;6285842;28;20302;-71
2023/10/17 00:34:34;;;;;;;3.15;0.90;;;;;;;;;;6304850;28;20297;-73
2023/10/17 00:37:38;;;;;;;7.78;1.10;;;;;;;;;;6302783;28;20294;-73
2023/10/17 00:40:48;;;;;;;2.50;0.93;;;;;;;;;;6305094;28;20495;-72
2023/10/17 00:43:53;;;;;;;5.80;1.30;;;;;;;;;;6306119;28;20294;-74
2023/10/17 00:46:58;;;;;;;3.03;1.10;;;;;;;;;;6306794;28;20353;-72
2023/10/17 00:50:12;;;;;;;4.25;1.02;;;;;;;;;;6304736;28;20306;-72
2023/10/17 00:53:16;;;;;;;7.03;1.05;;;;;;;;;;6304027;28;20644;-73
2023/10/17 00:56:20;;;;;;;3.28;0.90;;;;;;;;;;6304570;28;20306;-71
2023/10/17 00:59:25;;;;;;;3.80;0.95;;;;;;;;;;6306126;28;20282;-72
2023/10/17 01:02:31;;;;;;;2.40;0.90;;;;;;;;;;6304942;28;20293;-73
2023/10/17 01:05:46;;;;;;;4.50;0.85;;;;;;;;;;6306043;28;20626;-72
2023/10/17 01:08:50;;;;;;;1.00;0.98;;;;;;;;;;6306202;28;20294;-72
2023/10/17 01:11:55;;;;;;;4.72;1.10;;;;;;;;;;6285051;28;20299;-73
2023/10/17 01:14:59;;;;;;;1.60;0.73;;;;;;;;;;6279192;28;20303;-72
2023/10/17 01:18:05;;;;;;;0.80;0.80;;;;;;;;;;6280969;28;20319;-72
2023/10/17 01:21:12;;;;;;;1.85;1.02;;;;;;;;;;6281408;28;20294;-72
2023/10/17 01:24:18;;;;;;;3.95;1.20;;;;;;;;;;6279037;28;20306;-73
2023/10/17 01:27:22;;;;;;;5.18;0.80;;;;;;;;;;6281554;28;20611;-72
2023/10/17 01:30:29;;;;;;;1.33;1.00;;;;;;;;;;6280946;28;20299;-72
2023/10/17 01:33:35;;;;;;;3.65;1.13;;;;;;;;;;6300666;28;20480;-71
2023/10/17 01:36:39;;;;;;;1.95;0.80;;;;;;;;;;6304773;28;20302;-72
2023/10/17 01:39:44;;;;;;;3.65;1.02;;;;;;;;;;6310945;28;20309;-71
2023/10/17 01:42:48;;;;;;;5.47;0.93;;;;;;;;;;6310588;28;20306;-71
2023/10/17 01:45:54;;;;;;;0.88;0.88;;;;;;;;;;6310922;28;20321;-74
2023/10/17 01:49:00;;;;;;;1.13;0.80;;;;;;;;;;6308481;28;20310;-71
2023/10/17 01:52:06;;;;;;;3.30;0.70;;;;;;;;;;6310635;28;20274;-73
2023/10/17 01:55:14;;;;;;;7.32;0.90;;;;;;;;;;6308978;28;20298;-73
2023/10/17 01:58:18;;;;;;;5.80;1.02;;;;;;;;;;6309918;28;20332;-73
2023/10/17 02:01:25;;;;;;;1.73;1.10;;;;;;;;;;6308405;28;20295;-72
2023/10/17 02:04:30;;;;;;;7.00;0.90;;;;;;;;;;6309881;28;20565;-72
2023/10/17 02:07:34;;;;;;;2.03;0.70;;;;;;;;;;6309917;28;20351;-73
2023/10/17 02:10:39;;;;;;;2.53;0.90;;;;;;;;;;6299330;28;20292;-72
2023/10/17 02:13:45;;;;;;;7.78;1.10;;;;;;;;;;6285038;28;20303;-73
2023/10/17 02:16:49;;;;;;;0.82;0.82;;;;;;;;;;6285348;28;20290;-73
2023/10/17 02:19:58;;;;;;;8.65;1.15;;;;;;;;;;6283087;28;20295;-73
2023/10/17 02:23:08;;;;;;;0.70;0.70;;;;;;;;;;6283330;28;20303;-72
2023/10/17 02:26:14;;;;;;;1.45;0.90;;;;;;;;;;6285130;28;20295;-73
2023/10/17 02:29:23;;;;;;;1.13;1.00;;;;;;;;;;6283485;28;20611;-71
2023/10/17 02:32:28;;;;;;;1.08;0.82;;;;;;;;;;6297206;28;20310;-73
2023/10/17 02:35:36;;;;;;;5.07;0.88;;;;;;;;;;6307590;28;20306;-73
2023/10/17 02:38:41;;;;;;;3.92;0.80;;;;;;;;;;6307564;28;20306;-74
2023/10/17 02:41:46;;;;;;;2.05;0.82;;;;;;;;;;6307747;28;20574;-73
2023/10/17 02:44:50;;;;;;;0.82;0.80;;;;;;;;;;6309231;28;20302;-72
2023/10/17 02:47:54;;;;;;;2.33;0.70;;;;;;;;;;6308681;28;20305;-73
2023/10/17 02:51:03;;;;;;;2.85;0.70;;;;;;;;;;6309623;28;20647;-72
2023/10/17 02:54:11;;;;;;;2.85;0.90;;;;;;;;;;6308992;28;20327;-74
2023/10/17 02:57:18;;;;;;;4.95;0.93;;;;;;;;;;6307415;28;20299;-72
2023/10/17 03:00:22;;;;;;;3.90;0.85;;;;;;;;;;6306173;28;20306;-74
2023/10/17 03:03:29;;;;;;;5.07;0.90;;;;;;;;;;6289572;28;20376;-72
2023/10/17 03:06:33;;;;;;;2.53;0.95;;;;;;;;;;6301151;28;20318;-72
2023/10/17 03:09:43;;;;;;;4.28;0.90;;;;;;;;;;6283658;28;20291;-73
2023/10/17 03:12:54;;;;;;;1.73;0.80;;;;;;;;;;6302477;28;20417;-71
2023/10/17 03:16:01;;;;;;;3.90;1.20;;;;;;;;;;6307625;28;20299;-72
2023/10/17 03:19:05;;;;;;;6.45;0.90;;;;;;;;;;6307600;28;20258;-72
2023/10/17 03:22:18;;;;;;;1.63;1.20;;;;;;;;;;6282558;28;20279;-72
2023/10/17 03:25:24;;;;;;;1.00;1.00;;;;;;;;;;6281761;28;20291;-75
2023/10/17 03:28:32;;;;;;;1.20;0.90;;;;;;;;;;6283709;28;20282;-72
2023/10/17 03:31:38;;;;;;;2.87;1.10;;;;;;;;;;6288302;28;20302;-72
2023/10/17 03:34:45;;;;;;;2.33;1.30;;;;;;;;;;6305875;28;20457;-78
2023/10/17 03:37:49;;;;;;;4.20;1.30;;;;;;;;;;6292994;28;20291;-71
2023/10/17 03:41:02;;;;;;;3.80;1.27;;;;;;;;;;6283906;28;20358;-72
2023/10/17 03:44:07;;;;;;;6.13;1.20;;;;;;;;;;6283016;28;20303;-73
2023/10/17 03:47:12;;;;;;;1.63;1.52;;;;;;;;;;6283282;28;20295;-73
2023/10/17 03:50:34;;;;;;;1.20;1.10;;;;;;;;;;6282692;28;20322;-72
2023/10/17 03:53:46;;;;;;;1.00;1.00;;;;;;;;;;6283169;28;20311;-72
2023/10/17 03:56:56;;;;;;;2.55;1.20;;;;;;;;;;6282705;28;20398;-73
2023/10/17 04:00:18;;;;;;;1.20;1.10;;;;;;;;;;6281350;28;20307;-72
2023/10/17 04:03:22;;;;;;;1.77;1.10;;;;;;;;;;6283114;28;20295;-72
2023/10/17 04:06:36;;;;;;;1.10;1.10;;;;;;;;;;6281967;28;20381;-72
2023/10/17 04:09:52;;;;;;;2.20;1.10;;;;;;;;;;6282183;28;20315;-74
2023/10/17 04:13:13;;;;;;;4.93;1.00;;;;;;;;;;6304913;28;20635;-72
2023/10/17 04:16:22;;;;;;;1.10;1.10;;;;;;;;;;6307388;28;20507;-72
2023/10/17 04:19:26;;;;;;;1.17;1.17;;;;;;;;;;6307225;28;20302;-72
2023/10/17 04:22:30;;;;;;;1.23;1.02;;;;;;;;;;6307572;28;20306;-71
2023/10/17 04:25:37;;;;;;;2.13;1.00;;;;;;;;;;6306747;28;20560;-72
2023/10/17 04:28:41;;;;;;;2.90;1.30;;;;;;;;;;6306906;28;20290;-71
2023/10/17 04:31:47;;;;;;;2.75;1.15;;;;;;;;;;6300214;28;20303;-71
2023/10/17 04:34:52;;;;;;;1.02;1.02;;;;;;;;;;6279642;28;20466;-71
2023/10/17 04:38:09;;;;;;;3.10;1.20;;;;;;;;;;6282423;28;20378;-72
2023/10/17 04:41:30;;;;;;;4.43;1.08;;;;;;;;;;6281561;28;20330;-72
2023/10/17 04:44:36;;;;;;;2.15;1.10;;;;;;;;;;6281646;28;20291;-73
2023/10/17 04:47:43;;;;;;;1.10;1.10;;;;;;;;;;6282178;28;20298;-72
2023/10/17 04:50:55;;;;;;;1.90;1.20;;;;;;;;;;6279607;28;20512;-73
2023/10/17 04:54:10;;;;;;;2.90;1.05;;;;;;;;;;6281517;28;20256;-72
2023/10/17 04:57:16;;;;;;;1.15;1.15;;;;;;;;;;6281953;28;20291;-73
2023/10/17 05:00:25;;;;;;;3.83;1.35;;;;;;;;;;6304860;28;20302;-73
2023/10/17 05:03:45;;;;;;;1.67;1.20;;;;;;;;;;6306716;28;20291;-73
2023/10/17 06:17:40;;;;;;;3.88;1.77;;;;;;;;;;6278938;28;20295;-73
2023/10/17 06:21:06;;;;;;;3.55;1.38;;;;;;;;;;6280180;28;20295;-72
2023/10/17 06:24:42;;;;;;;2.25;1.20;;;;;;;;;;6281997;28;20461;-71
2023/10/17 06:34:33;;;;;;;1.65;1.58;;;;;;;;;;6308970;28;20302;-73
2023/10/17 06:37:42;;;;;;;2.78;1.50;;;;;;;;;;6308203;28;20286;-72
2023/10/17 06:40:46;;;;;;;2.15;1.60;;;;;;;;;;6309346;28;20294;-72
2023/10/17 06:43:54;;;;;;;3.80;2.13;;;;;;;;;;6309630;28;20342;-72
2023/10/17 06:47:03;;;;;;;8.35;1.83;;;;;;;;;;6308678;28;20282;-73
2023/10/17 06:50:50;;;;;;;3.97;1.90;;;;;;;;;;6309147;28;20302;-72
2023/10/17 06:53:41;;;;;;;2.15;1.60;;;;;;;;;;6309253;28;20302;-72
2023/10/17 06:56:44;;;;;;;4.03;1.40;;;;;;;;;;6309439;28;20294;-73
2023/10/17 06:59:51;;;;;;;1.30;1.30;;;;;;;;;;6307939;28;20340;-72
2023/10/17 07:02:57;;;;;;;2.60;1.30;;;;;;;;;;6309884;28;20280;-72
2023/10/17 07:06:11;;;;;;;1.80;1.10;;;;;;;;;;6308978;28;20290;-72
2023/10/17 07:09:18;;;;;;;1.55;1.45;;;;;;;;;;6308651;28;20294;-72
2023/10/17 07:12:22;;;;;;;2.45;1.40;;;;;;;;;;6290470;28;20559;-73
2023/10/17 07:15:29;;;;;;;3.25;1.80;;;;;;;;;;6283666;28;20318;-71
2023/10/17 07:18:46;;;;;;;1.70;1.60;;;;;;;;;;6284165;28;20294;-73
2023/10/17 07:21:56;;;;;;;3.05;1.73;;;;;;;;;;6283366;28;20299;-71
2023/10/17 07:25:02;;;;;;;4.07;1.80;;;;;;;;;;6283278;28;20318;-71
2023/10/17 07:28:07;;;;;;;3.20;1.60;;;;;;;;;;6282659;28;20623;-72
2023/10/17 07:31:13;;;;;;;1.55;1.50;;;;;;;;;;6285033;28;20295;-73
2023/10/17 07:34:21;;;;;;;2.97;1.70;;;;;;;;;;6306993;28;20290;-73
2023/10/17 07:37:25;;;;;;;1.77;1.50;;;;;;;;;;6306367;28;20302;-72
2023/10/17 07:40:33;;;;;;;5.18;1.80;;;;;;;;;;6307790;28;20302;-72
2023/10/17 07:43:37;;;;;;;4.53;2.10;;;;;;;;;;6308279;28;20301;-73
2023/10/17 07:46:44;;;;;;;2.90;1.75;;;;;;;;;;6308060;28;20282;-72
2023/10/17 07:49:48;;;;;;;2.85;2.40;;;;;;;;;;6308202;28;20286;-72
2023/10/17 07:52:59;;;;;;;4.50;2.45;;;;;;;;;;6308182;28;20369;-72
2023/10/17 07:56:12;;;;;;;2.55;2.20;;;;;;;;;;6308150;28;20313;-73
2023/10/17 07:59:16;;;;;;;4.28;2.45;;;;;;;;;;6307467;28;20293;-71
2023/10/17 08:02:23;;;;;;;2.05;1.95;;;;;;;;;;6307765;28;20469;-73
2023/10/17 08:05:36;;;;;;;1.80;1.80;;;;;;;;;;6307360;28;20294;-72
2023/10/17 08:08:43;;;;;;;6.53;1.70;;;;;;;;;;6305808;28;20302;-71
2023/10/17 08:11:51;;;;;;;1.60;1.50;;;;;;;;;;6293405;28;20294;-71
2023/10/17 08:14:59;;;;;;;1.10;1.10;;;;;;;;;;6282403;28;20288;-71
2023/10/17 08:18:13;;;;;;;1.60;1.50;;;;;;;;;;6282599;28;20291;-72
2023/10/17 08:24:40;;;;;;;2.25;1.30;;;;;;;;;;6282082;28;20294;-71
2023/10/17 08:27:46;;;;;;;4.45;1.23;;;;;;;;;;6282398;28;20318;-72
2023/10/17 08:30:51;;;;;;;1.27;1.00;;;;;;;;;;6281754;28;20299;-72
2023/10/17 08:34:08;;;;;;;2.50;1.48;;;;;;;;;;6304831;28;20291;-73
2023/10/17 08:37:18;;;;;;;6.43;1.23;;;;;;;;;;6305317;28;20302;-73
2023/10/17 08:40:29;;;;;;;1.00;1.00;;;;;;;;;;6306638;28;20290;-72
2023/10/17 08:43:36;;;;;;;1.10;1.10;;;;;;;;;;6307242;28;20278;-72
2023/10/17 08:46:39;;;;;;;1.30;0.80;;;;;;;;;;6305854;28;20307;-72
2023/10/17 08:49:45;;;;;;;2.47;1.25;;;;;;;;;;6306195;28;20579;-72
2023/10/17 08:52:49;;;;;;;2.90;1.00;;;;;;;;;;6306735;28;20294;-73
2023/10/17 08:55:54;;;;;;;2.63;0.98;;;;;;;;;;6306008;28;20294;-72
2023/10/17 08:59:04;;;;;;;2.53;1.10;;;;;;;;;;6303590;28;20287;-72
2023/10/17 09:02:22;;;;;;;1.75;1.10;;;;;;;;;;6306554;28;20290;-72
2023/10/17 09:05:29;;;;;;;3.53;0.93;;;;;;;;;;6306139;28;20286;-72
2023/10/17 09:08:45;;;;;;;2.60;1.40;;;;;;;;;;6306629;28;20317;-71
2023/10/17 09:12:04;;;;;;;3.45;1.15;;;;;;;;;;6305779;28;20318;-73
2023/10/17 09:15:27;;;;;;;1.20;1.10;;;;;;;;;;6305667;28;20302;-73
2023/10/17 09:18:39;;;;;;;1.45;1.25;;;;;;;;;;6306175;28;20449;-72
2023/10/17 09:21:50;;;;;;;1.55;1.25;;;;;;;;;;6305606;28;20301;-71
2023/10/17 09:24:56;;;;;;;4.32;1.00;;;;;;;;;;6304813;28;20294;-72
2023/10/17 09:28:00;;;;;;;2.13;1.20;;;;;;;;;;6305999;28;20563;-72
2023/10/17 09:31:07;;;;;;;1.85;1.10;;;;;;;;;;6305026;28;20298;-73
2023/10/17 09:34:13;;;;;;;2.92;1.00;;;;;;;;;;6280486;28;20358;-72
2023/10/17 09:37:19;;;;;;;0.95;0.82;;;;;;;;;;6279367;28;20334;-71
2023/10/17 09:40:27;;;;;;;1.38;1.00;;;;;;;;;;6280531;28;20316;-71
2023/10/17 09:43:31;;;;;;;5.28;1.45;;;;;;;;;;6280969;28;20299;-71
2023/10/17 09:46:35;;;;;;;3.80;1.30;;;;;;;;;;6280315;28;20290;-73
2023/10/17 09:49:45;;;;;;;2.65;1.42;;;;;;;;;;6280688;28;20340;-72
2023/10/17 09:52:56;;;;;;;2.17;1.15;;;;;;;;;;6278885;28;20459;-71
2023/10/17 09:56:06;;;;;;;1.02;0.98;;;;;;;;;;6280565;28;20283;-71
2023/10/17 09:59:13;;;;;;;1.65;0.80;;;;;;;;;;6282892;28;20299;-72
2023/10/17 10:02:20;;;;;;;3.75;1.00;;;;;;;;;;6285903;28;20305;-72
2023/10/17 10:05:25;;;;;;;3.08;1.40;;;;;;;;;;6285330;28;20566;-73
2023/10/17 10:08:33;;;;;;;3.95;1.35;;;;;;;;;;6285650;28;20310;-71
2023/10/17 10:11:55;;;;;;;1.55;0.90;;;;;;;;;;6295607;28;20290;-72
2023/10/17 10:14:59;;;;;;;7.60;1.38;;;;;;;;;;6310183;28;20302;-73
2023/10/17 10:18:03;;;;;;;0.80;0.80;;;;;;;;;;6310806;28;20301;-73
2023/10/17 10:21:08;;;;;;;1.13;1.13;;;;;;;;;;6309522;28;20298;-73
2023/10/17 10:24:18;;;;;;;0.93;0.93;;;;;;;;;;6310810;28;20348;-73
2023/10/17 10:27:26;;;;;;;4.95;1.15;;;;;;;;;;6310625;28;20290;-76
2023/10/17 10:30:43;;;;;;;3.42;0.90;;;;;;;;;;6309536;28;20307;-72
2023/10/17 10:33:49;;;;;;;4.63;0.88;;;;;;;;;;6286722;28;20299;-74
2023/10/17 10:36:53;;;;;;;2.72;0.90;;;;;;;;;;6282054;28;20291;-72
2023/10/17 10:40:16;;;;;;;2.38;1.00;;;;;;;;;;6284651;28;20314;-72
2023/10/17 10:43:21;;;;;;;2.67;1.10;;;;;;;;;;6284898;28;20295;-73
2023/10/17 10:46:24;;;;;;;0.95;0.95;;;;;;;;;;6284112;28;20295;-73
2023/10/17 10:49:30;;;;;;;0.70;0.70;;;;;;;;;;6282504;28;20615;-72
2023/10/17 10:52:34;;;;;;;1.75;1.00;;;;;;;;;;6284745;28;20303;-71
2023/10/17 10:55:39;;;;;;;1.00;1.00;;;;;;;;;;6284140;28;20295;-72
2023/10/17 10:58:47;;;;;;;1.10;1.00;;;;;;;;;;6284498;28;20302;-72
2023/10/17 11:01:51;;;;;;;4.03;1.00;;;;;;;;;;6284027;28;20291;-72
2023/10/17 11:04:56;;;;;;;1.65;0.95;;;;;;;;;;6283859;28;20290;-71
2023/10/17 11:08:01;;;;;;;0.88;0.80;;;;;;;;;;6284519;28;20295;-71
2023/10/17 11:11:09;;;;;;;3.00;0.75;;;;;;;;;;6290889;28;20298;-71
2023/10/17 11:14:16;;;;;;;5.85;1.00;;;;;;;;;;6308650;28;20326;-72
2023/10/17 11:17:20;;;;;;;3.70;0.88;;;;;;;;;;6309096;28;20298;-72
2023/10/17 11:20:28;;;;;;;0.90;0.80;;;;;;;;;;6308717;28;20298;-73
2023/10/17 11:23:32;;;;;;;0.60;0.60;;;;;;;;;;6307202;28;20471;-73
2023/10/17 11:26:40;;;;;;;2.88;0.82;;;;;;;;;;6308507;28;20294;-72
2023/10/17 11:29:44;;;;;;;3.22;1.25;;;;;;;;;;6308325;28;20563;-71
2023/10/17 11:32:49;;;;;;;3.25;0.70;;;;;;;;;;6293537;28;20310;-73
2023/10/17 11:35:54;;;;;;;0.90;0.90;;;;;;;;;;6279715;28;20448;-72
2023/10/17 11:38:58;;;;;;;2.17;1.38;;;;;;;;;;6283200;28;20634;-73
2023/10/17 11:42:04;;;;;;;0.85;0.70;;;;;;;;;;6283560;28;20335;-72
2023/10/17 11:45:20;;;;;;;1.23;0.70;;;;;;;;;;6283142;28;20318;-72
2023/10/17 11:48:27;;;;;;;2.28;0.93;;;;;;;;;;6283326;28;20291;-71
2023/10/17 11:51:33;;;;;;;1.17;0.68;;;;;;;;;;6283267;28;20300;-72
2023/10/17 11:54:56;;;;;;;0.70;0.70;;;;;;;;;;6282907;28;20287;-71
2023/10/17 11:58:01;;;;;;;0.90;0.90;;;;;;;;;;6282618;28;20305;-72
2023/10/17 12:01:05;;;;;;;0.60;0.60;;;;;;;;;;6283120;28;20405;-73
2023/10/17 12:04:11;;;;;;;4.75;1.00;;;;;;;;;;6282943;28;20247;-72
2023/10/17 12:07:15;;;;;;;0.80;0.80;;;;;;;;;;6283663;28;20709;-73
2023/10/17 12:10:19;;;;;;;1.17;0.77;;;;;;;;;;6282686;28;20291;-73
2023/10/17 12:13:26;;;;;;;6.40;0.90;;;;;;;;;;6283132;28;20283;-71
2023/10/17 12:16:30;;;;;;;3.80;1.00;;;;;;;;;;6282315;28;20238;-73
2023/10/17 12:19:34;;;;;;;3.00;0.80;;;;;;;;;;6282191;28;20598;-72
2023/10/17 12:22:39;;;;;;;1.00;1.00;;;;;;;;;;6282205;28;20614;-72
2023/10/17 12:25:44;;;;;;;3.60;1.10;;;;;;;;;;6282700;28;20291;-73
2023/10/17 12:28:50;;;;;;;3.03;0.90;;;;;;;;;;6282809;28;20456;-72
2023/10/17 12:31:54;;;;;;;4.25;0.90;;;;;;;;;;6288981;28;20290;-72
2023/10/17 12:34:58;;;;;;;2.13;0.90;;;;;;;;;;6304765;28;20305;-72
2023/10/17 12:38:06;;;;;;;3.97;1.13;;;;;;;;;;6307262;28;20314;-72
2023/10/17 12:41:12;;;;;;;0.88;0.88;;;;;;;;;;6306523;28;20306;-71
2023/10/17 12:44:17;;;;;;;2.97;1.00;;;;;;;;;;6306239;28;20313;-71
2023/10/17 12:47:21;;;;;;;3.70;1.10;;;;;;;;;;6306761;28;20559;-72
2023/10/17 12:50:25;;;;;;;0.90;0.90;;;;;;;;;;6306493;28;20630;-72
2023/10/17 12:53:29;;;;;;;3.65;0.90;;;;;;;;;;6306860;28;20310;-73
2023/10/17 12:56:36;;;;;;;2.33;1.05;;;;;;;;;;6306149;28;20298;-73
2023/10/17 12:59:41;;;;;;;2.20;1.13;;;;;;;;;;6306208;28;20282;-72
2023/10/17 13:02:47;;;;;;;3.47;1.00;;;;;;;;;;6306784;28;20322;-73
2023/10/17 13:05:51;;;;;;;1.75;1.35;;;;;;;;;;6306296;28;20306;-72
2023/10/17 13:08:57;;;;;;;2.95;0.90;;;;;;;;;;6306140;28;20318;-73
2023/10/17 13:12:01;;;;;;;0.80;0.80;;;;;;;;;;6291030;28;20302;-73
2023/10/17 13:15:09;;;;;;;6.10;0.90;;;;;;;;;;6279438;28;20299;-72
2023/10/17 13:18:14;;;;;;;1.40;0.90;;;;;;;;;;6281546;28;20290;-73
2023/10/17 13:21:18;;;;;;;3.10;0.80;;;;;;;;;;6280918;28;20573;-72
2023/10/17 13:24:22;;;;;;;2.03;0.90;;;;;;;;;;6280803;28;20282;-72
2023/10/17 13:27:26;;;;;;;0.98;0.95;;;;;;;;;;6281581;28;20302;-74
2023/10/17 13:30:32;;;;;;;1.23;1.02;;;;;;;;;;6280712;28;20315;-73
2023/10/17 13:33:36;;;;;;;1.35;0.95;;;;;;;;;;6303290;28;20301;-72
2023/10/17 13:36:40;;;;;;;3.90;1.00;;;;;;;;;;6303897;28;20294;-73
2023/10/17 13:39:44;;;;;;;1.95;1.05;;;;;;;;;;6305671;28;20285;-72
2023/10/17 13:42:50;;;;;;;1.75;0.93;;;;;;;;;;6306255;28;20310;-72
2023/10/17 13:45:55;;;;;;;1.15;1.05;;;;;;;;;;6304857;28;20302;-72
2023/10/17 13:48:59;;;;;;;1.27;1.00;;;;;;;;;;6305618;28;20246;-73
2023/10/17 13:52:05;;;;;;;1.98;0.98;;;;;;;;;;6306047;28;20298;-72
2023/10/17 13:55:14;;;;;;;2.88;0.80;;;;;;;;;;6305228;28;20317;-72
2023/10/17 13:58:18;;;;;;;0.80;0.80;;;;;;;;;;6305909;28;20400;-73
2023/10/17 14:01:31;;;;;;;3.03;1.20;;;;;;;;;;6305376;28;20309;-71
2023/10/17 14:04:36;;;;;;;2.47;0.88;;;;;;;;;;6305154;28;20302;-72
2023/10/17 14:07:41;;;;;;;6.28;1.23;;;;;;;;;;6305706;28;20305;-73
2023/10/17 14:10:46;;;;;;;2.50;0.95;;;;;;;;;;6300390;28;20545;-73
2023/10/17 14:13:51;;;;;;;1.23;1.05;;;;;;;;;;6280654;28;20290;-72
2023/10/17 14:16:58;;;;;;;4.55;0.98;;;;;;;;;;6280510;28;20227;-71
2023/10/17 14:20:06;;;;;;;0.77;0.77;;;;;;;;;;6280115;28;20390;-73
2023/10/17 14:23:12;;;;;;;1.05;1.05;;;;;;;;;;6282987;28;20591;-73
2023/10/17 14:26:20;;;;;;;1.35;0.90;;;;;;;;;;6282480;28;20315;-73
2023/10/17 14:29:25;;;;;;;0.90;0.90;;;;;;;;;;6281530;28;20299;-72
2023/10/17 14:32:30;;;;;;;7.70;1.02;;;;;;;;;;6292872;28;20301;-72
2023/10/17 14:35:35;;;;;;;1.65;0.93;;;;;;;;;;6303014;28;20373;-71
2023/10/17 14:38:39;;;;;;;1.45;0.95;;;;;;;;;;6304784;28;20286;-71
2023/10/17 14:41:44;;;;;;;1.65;1.10;;;;;;;;;;6304868;28;20294;-71
2023/10/17 14:44:49;;;;;;;4.32;1.10;;;;;;;;;;6306789;28;20470;-72
2023/10/17 14:47:55;;;;;;;1.15;1.05;;;;;;;;;;6309957;28;20314;-71
2023/10/17 14:51:02;;;;;;;1.90;1.05;;;;;;;;;;6309185;28;20289;-72
2023/10/17 14:54:08;;;;;;;1.48;1.23;;;;;;;;;;6309744;28;20289;-71
2023/10/17 14:57:13;;;;;;;1.75;1.13;;;;;;;;;;6309660;28;20298;-73
2023/10/17 15:00:17;;;;;;;4.15;1.55;;;;;;;;;;6308941;28;20501;-73
2023/10/17 15:03:25;;;;;;;1.15;1.05;;;;;;;;;;6309407;28;20294;-72
2023/10/17 15:06:29;;;;;;;2.75;1.15;;;;;;;;;;6308609;28;20622;-72
2023/10/17 15:09:34;;;;;;;4.38;1.15;;;;;;;;;;6309208;28;20484;-72
2023/10/17 15:12:39;;;;;;;1.65;1.00;;;;;;;;;;6288626;28;20496;-72
2023/10/17 15:15:43;;;;;;;2.25;0.90;;;;;;;;;;6283814;28;20464;-73
2023/10/17 15:18:51;;;;;;;2.63;0.93;;;;;;;;;;6284436;28;20318;-73
2023/10/17 15:21:56;;;;;;;1.98;1.00;;;;;;;;;;6282797;28;20295;-73
2023/10/17 15:25:00;;;;;;;2.55;1.10;;;;;;;;;;6283895;28;20302;-72
2023/10/17 15:28:04;;;;;;;1.42;1.13;;;;;;;;;;6284245;28;20263;-72
2023/10/17 15:31:09;;;;;;;1.98;1.20;;;;;;;;;;6283581;28;20454;-73
2023/10/17 15:34:15;;;;;;;3.95;1.10;;;;;;;;;;6283617;28;20565;-73
2023/10/17 15:37:19;;;;;;;4.30;1.30;;;;;;;;;;6282090;28;20302;-72
2023/10/17 15:40:24;;;;;;;3.10;1.23;;;;;;;;;;6283919;28;20314;-71
2023/10/17 15:43:28;;;;;;;3.20;1.40;;;;;;;;;;6284660;28;20591;-72
2023/10/17 15:46:32;;;;;;;4.45;1.35;;;;;;;;;;6283665;28;20359;-73
2023/10/17 15:49:38;;;;;;;4.60;1.23;;;;;;;;;;6283465;28;20294;-71
2023/10/17 15:52:42;;;;;;;1.60;1.33;;;;;;;;;;6283851;28;20302;-72
2023/10/17 15:55:52;;;;;;;2.10;1.13;;;;;;;;;;6282499;28;20306;-72
2023/10/17 15:58:56;;;;;;;1.20;1.10;;;;;;;;;;6283519;28;20294;-71
2023/10/17 16:02:00;;;;;;;3.95;1.38;;;;;;;;;;6283558;28;20544;-73
2023/10/17 16:05:10;;;;;;;4.88;1.45;;;;;;;;;;6282890;28;20425;-73
2023/10/17 16:08:14;;;;;;;10.48;1.45;;;;;;;;;;6283396;28;20326;-71
2023/10/17 16:11:20;;;;;;;2.90;1.17;;;;;;;;;;6292117;28;20563;-72
2023/10/17 16:14:24;;;;;;;1.75;1.48;;;;;;;;;;6307971;28;20555;-73
2023/10/17 16:17:28;;;;;;;2.67;1.60;;;;;;;;;;6307562;28;20286;-72
2023/10/17 16:20:34;;;;;;;2.10;1.73;;;;;;;;;;6307185;28;20373;-71
2023/10/17 16:23:38;;;;;;;5.60;2.15;;;;;;;;;;6307971;28;20298;-72
2023/10/17 16:26:43;;;;;;;5.60;1.80;;;;;;;;;;6307842;28;20575;-73
2023/10/17 16:29:47;;;;;;;4.55;1.42;;;;;;;;;;6306826;28;20290;-72
2023/10/17 16:32:51;;;;;;;6.18;2.15;;;;;;;;;;6292108;28;20298;-73
2023/10/17 16:36:00;;;;;;;1.77;1.70;;;;;;;;;;6280142;28;20298;-72
2023/10/17 16:39:04;;;;;;;5.03;1.67;;;;;;;;;;6281975;28;20327;-71
2023/10/17 16:42:08;;;;;;;5.88;1.48;;;;;;;;;;6280419;28;20322;-73
2023/10/17 16:45:12;;;;;;;6.15;1.60;;;;;;;;;;6281836;28;20307;-72
2023/10/17 16:48:16;;;;;;;7.38;1.58;;;;;;;;;;6282130;28;20475;-71
2023/10/17 16:51:23;;;;;;;4.13;1.60;;;;;;;;;;6281502;28;20310;-71
2023/10/17 16:54:29;;;;;;;2.45;1.55;;;;;;;;;;6281256;28;20314;-75
2023/10/17 16:57:33;;;;;;;2.90;1.35;;;;;;;;;;6301405;28;20571;-74
2023/10/17 17:00:37;;;;;;;5.00;1.70;;;;;;;;;;6306142;28;20302;-76
2023/10/17 17:03:41;;;;;;;1.48;1.48;;;;;;;;;;6304889;28;20290;-77
2023/10/17 17:06:46;;;;;;;3.20;1.80;;;;;;;;;;6305848;28;20601;-73
2023/10/17 17:09:51;;;;;;;4.00;1.50;;;;;;;;;;6306289;28;20298;-73
2023/10/17 17:12:56;;;;;;;3.40;1.63;;;;;;;;;;6282876;28;20275;-73
2023/10/17 17:16:00;;;;;;;6.97;3.03;;;;;;;;;;6282122;28;20311;-71
2023/10/17 17:19:05;;;;;;;4.43;1.55;;;;;;;;;;6281499;28;20306;-73
2023/10/17 17:22:11;;;;;;;8.70;1.67;;;;;;;;;;6281517;28;20235;-71
2023/10/17 17:25:15;;;;;;;3.33;1.20;;;;;;;;;;6280953;28;20298;-72
2023/10/17 17:28:19;;;;;;;3.88;1.30;;;;;;;;;;6281463;28;20306;-70
2023/10/17 17:31:23;;;;;;;2.42;2.05;;;;;;;;;;6283712;28;20345;-74
2023/10/17 17:34:27;;;;;;;3.85;1.52;;;;;;;;;;6305716;28;20286;-72
2023/10/17 17:37:33;;;;;;;2.05;1.30;;;;;;;;;;6304371;28;20310;-73
2023/10/17 17:40:37;;;;;;;6.43;1.40;;;;;;;;;;6305378;28;20306;-72
2023/10/17 17:43:41;;;;;;;2.20;1.40;;;;;;;;;;6305692;28;20404;-73
2023/10/17 17:46:45;;;;;;;5.13;1.30;;;;;;;;;;6305385;28;20298;-72
2023/10/17 17:49:49;;;;;;;3.85;1.30;;;;;;;;;;6305398;28;20318;-71
2023/10/17 17:52:54;;;;;;;4.40;3.10;;;;;;;;;;6305812;28;20321;-71
2023/10/17 17:55:58;;;;;;;2.42;1.23;;;;;;;;;;6305230;28;20290;-72
2023/10/17 17:59:03;;;;;;;3.15;1.35;;;;;;;;;;6303384;28;20299;-71
2023/10/17 18:02:08;;;;;;;1.40;1.30;;;;;;;;;;6305878;28;20290;-71
2023/10/17 18:05:12;;;;;;;1.30;1.10;;;;;;;;;;6305552;28;20310;-70
2023/10/17 18:08:24;;;;;;;1.48;1.48;;;;;;;;;;6305502;28;20310;-72
2023/10/17 18:11:28;;;;;;;1.95;1.13;;;;;;;;;;6294470;28;20599;-71
2023/10/17 18:14:32;;;;;;;2.03;1.20;;;;;;;;;;6280341;28;20294;-71
2023/10/17 18:17:36;;;;;;;1.10;1.10;;;;;;;;;;6279368;28;20298;-71
2023/10/17 18:20:40;;;;;;;1.30;1.17;;;;;;;;;;6283040;28;20334;-71
2023/10/17 18:23:45;;;;;;;0.90;0.90;;;;;;;;;;6285352;28;20378;-72
2023/10/17 18:26:49;;;;;;;0.90;0.90;;;;;;;;;;6285257;28;20306;-70
2023/10/17 18:29:53;;;;;;;1.35;1.20;;;;;;;;;;6284782;28;20287;-70
2023/10/17 18:32:57;;;;;;;0.90;0.90;;;;;;;;;;6301142;28;20552;-71
2023/10/17 18:36:02;;;;;;;1.67;1.42;;;;;;;;;;6307768;28;20306;-70
2023/10/17 18:39:08;;;;;;;1.20;1.02;;;;;;;;;;6309168;28;20298;-71
2023/10/17 18:42:12;;;;;;;0.98;0.98;;;;;;;;;;6307867;28;20298;-72
2023/10/17 18:45:16;;;;;;;3.63;1.10;;;;;;;;;;6309403;28;20494;-72
2023/10/17 18:48:20;;;;;;;1.00;1.00;;;;;;;;;;6309963;28;20392;-71
2023/10/17 18:51:24;;;;;;;2.58;1.10;;;;;;;;;;6309797;28;20294;-73
2023/10/17 18:54:29;;;;;;;1.55;1.10;;;;;;;;;;6309239;28;20302;-71
2023/10/17 18:57:33;;;;;;;1.08;1.08;;;;;;;;;;6309480;28;20286;-71
2023/10/17 19:00:37;;;;;;;2.28;1.70;;;;;;;;;;6308990;28;20294;-71
2023/10/17 19:03:42;;;;;;;1.55;1.50;;;;;;;;;;6309698;28;20305;-71
2023/10/17 19:06:46;;;;;;;3.40;2.33;;;;;;;;;;6308963;28;20294;-72
2023/10/17 19:09:52;;;;;;;14.10;5.03;;;;;;;;;;6308928;28;20377;-71
2023/10/17 19:12:56;;;;;;;17.77;6.25;;;;;;;;;;6285880;28;20267;-70
2023/10/17 19:16:00;;;;;;;13.23;5.32;;;;;;;;;;6283934;28;20314;-71
2023/10/17 19:19:04;;;;;;;10.77;4.70;;;;;;;;;;6283623;28;20247;-71
2023/10/17 19:22:08;;;;;;;9.40;4.05;;;;;;;;;;6284105;28;20262;-72
2023/10/17 19:25:15;;;;;;;3.63;1.80;;;;;;;;;;6283776;28;20377;-71
2023/10/17 19:28:19;;;;;;;2.17;2.00;;;;;;;;;;6284330;28;20351;-71
2023/10/17 19:31:23;;;;;;;2.70;1.98;;;;;;;;;;6286782;28;20590;-70
2023/10/17 19:34:26;;;;;;;1.30;1.30;;;;;;;;;;6308977;28;20314;-71
2023/10/17 19:37:31;;;;;;;1.30;1.20;;;;;;;;;;6307609;28;20294;-72
2023/10/17 19:40:36;;;;;;;3.75;1.20;;;;;;;;;;6308595;28;20294;-71
2023/10/17 19:43:40;;;;;;;1.08;1.08;;;;;;;;;;6308392;28;20310;-73
2023/10/17 19:46:44;;;;;;;1.00;1.00;;;;;;;;;;6306232;28;20294;-70
2023/10/17 19:49:48;;;;;;;1.58;1.33;;;;;;;;;;6307877;28;20602;-72
2023/10/17 19:52:53;;;;;;;1.38;0.90;;;;;;;;;;6308590;28;20325;-71
2023/10/17 19:55:58;;;;;;;1.10;1.10;;;;;;;;;;6307376;28;20286;-70
2023/10/17 19:59:02;;;;;;;2.22;0.90;;;;;;;;;;6305679;28;20306;-70